sensor_id;sensor_type;location;lat;lon;timestamp;P1;durP1;ratioP1;P2;durP2;ratioP2
32094;SDS011;18608;53.688;10.748;2022-07-17T00:01:06;10.30;;;3.00;;
32094;SDS011;18608;53.688;10.748;2022-07-17T00:03:32;7.90;;;2.83;;
32094;SDS011;18608;53.688;10.748;2022-07-17T00:05:58;5.90;;;2.90;;
32094;SDS011;18608;53.688;10.748;2022-07-17T00:08:23;12.87;;;3.43;;
32094;SDS011;18608;53.688;10.748;2022-07-17T00:10:49;4.40;;;3.23;;
32094;SDS011;18608;53.688;10.748;2022-07-17T00:13:15;10.83;;;3.50;;
32094;SDS011;18608;53.688;10.748;2022-07-17T00:15:40;12.60;;;3.63;;
32094;SDS011;18608;53.688;10.748;2022-07-17T00:18:06;2.60;;;2.37;;
32094;SDS011;18608;53.688;10.748;2022-07-17T00:20:32;7.00;;;2.50;;
32094;SDS011;18608;53.688;10.748;2022-07-17T00:22:59;4.30;;;3.37;;
32094;SDS011;18608;53.688;10.748;2022-07-17T00:25:25;8.13;;;2.60;;
32094;SDS011;18608;53.688;10.748;2022-07-17T00:27:51;12.47;;;3.10;;
32094;SDS011;18608;53.688;10.748;2022-07-17T00:30:17;5.87;;;2.47;;
32094;SDS011;18608;53.688;10.748;2022-07-17T00:32:43;6.03;;;2.47;;
32094;SDS011;18608;53.688;10.748;2022-07-17T00:35:09;4.97;;;2.10;;
32094;SDS011;18608;53.688;10.748;2022-07-17T00:37:42;6.43;;;2.07;;
32094;SDS011;18608;53.688;10.748;2022-07-17T00:40:10;3.30;;;2.40;;
32094;SDS011;18608;53.688;10.748;2022-07-17T00:42:40;9.40;;;2.20;;
32094;SDS011;18608;53.688;10.748;2022-07-17T00:45:10;7.03;;;2.10;;
32094;SDS011;18608;53.688;10.748;2022-07-17T00:50:36;9.87;;;2.80;;
32094;SDS011;18608;53.688;10.748;2022-07-17T00:53:04;9.00;;;2.80;;
32094;SDS011;18608;53.688;10.748;2022-07-17T00:55:31;9.00;;;3.20;;
32094;SDS011;18608;53.688;10.748;2022-07-17T00:57:57;10.07;;;3.10;;
32094;SDS011;18608;53.688;10.748;2022-07-17T01:00:26;6.20;;;2.90;;
32094;SDS011;18608;53.688;10.748;2022-07-17T01:02:52;3.87;;;2.47;;
32094;SDS011;18608;53.688;10.748;2022-07-17T01:05:20;7.77;;;2.47;;
32094;SDS011;18608;53.688;10.748;2022-07-17T01:07:47;7.60;;;2.50;;
32094;SDS011;18608;53.688;10.748;2022-07-17T01:10:14;7.00;;;3.70;;
32094;SDS011;18608;53.688;10.748;2022-07-17T01:12:42;8.67;;;2.20;;
32094;SDS011;18608;53.688;10.748;2022-07-17T01:15:08;4.40;;;2.57;;
32094;SDS011;18608;53.688;10.748;2022-07-17T01:17:35;7.10;;;3.70;;
32094;SDS011;18608;53.688;10.748;2022-07-17T01:20:02;5.30;;;2.13;;
32094;SDS011;18608;53.688;10.748;2022-07-17T01:22:29;5.20;;;2.20;;
32094;SDS011;18608;53.688;10.748;2022-07-17T01:24:55;3.73;;;2.67;;
32094;SDS011;18608;53.688;10.748;2022-07-17T01:27:20;9.37;;;2.30;;
32094;SDS011;18608;53.688;10.748;2022-07-17T01:29:46;8.40;;;2.80;;
32094;SDS011;18608;53.688;10.748;2022-07-17T01:32:12;9.53;;;2.20;;
32094;SDS011;18608;53.688;10.748;2022-07-17T01:34:37;7.20;;;2.43;;
32094;SDS011;18608;53.688;10.748;2022-07-17T01:37:03;6.20;;;3.23;;
32094;SDS011;18608;53.688;10.748;2022-07-17T01:39:28;6.67;;;2.53;;
32094;SDS011;18608;53.688;10.748;2022-07-17T01:42:12;6.63;;;2.57;;
32094;SDS011;18608;53.688;10.748;2022-07-17T01:44:38;6.57;;;2.20;;
32094;SDS011;18608;53.688;10.748;2022-07-17T01:47:03;11.47;;;2.67;;
32094;SDS011;18608;53.688;10.748;2022-07-17T01:49:29;5.57;;;2.80;;
32094;SDS011;18608;53.688;10.748;2022-07-17T01:51:55;12.63;;;2.53;;
32094;SDS011;18608;53.688;10.748;2022-07-17T01:54:25;10.40;;;2.60;;
32094;SDS011;18608;53.688;10.748;2022-07-17T01:56:52;5.20;;;1.97;;
32094;SDS011;18608;53.688;10.748;2022-07-17T01:59:17;4.57;;;1.90;;
32094;SDS011;18608;53.688;10.748;2022-07-17T02:01:43;3.67;;;1.60;;
32094;SDS011;18608;53.688;10.748;2022-07-17T02:04:08;4.77;;;2.33;;
32094;SDS011;18608;53.688;10.748;2022-07-17T02:06:34;5.13;;;2.00;;
32094;SDS011;18608;53.688;10.748;2022-07-17T02:09:00;5.27;;;2.33;;
32094;SDS011;18608;53.688;10.748;2022-07-17T02:11:25;4.03;;;2.30;;
32094;SDS011;18608;53.688;10.748;2022-07-17T02:13:51;9.00;;;2.70;;
32094;SDS011;18608;53.688;10.748;2022-07-17T02:16:16;6.87;;;2.30;;
32094;SDS011;18608;53.688;10.748;2022-07-17T02:18:42;6.30;;;2.30;;
32094;SDS011;18608;53.688;10.748;2022-07-17T02:21:07;11.83;;;2.53;;
32094;SDS011;18608;53.688;10.748;2022-07-17T02:23:33;8.93;;;2.33;;
32094;SDS011;18608;53.688;10.748;2022-07-17T02:25:59;9.43;;;2.70;;
32094;SDS011;18608;53.688;10.748;2022-07-17T02:28:24;8.87;;;2.73;;
32094;SDS011;18608;53.688;10.748;2022-07-17T02:30:50;8.20;;;2.07;;
32094;SDS011;18608;53.688;10.748;2022-07-17T02:33:15;8.13;;;2.77;;
32094;SDS011;18608;53.688;10.748;2022-07-17T02:35:41;6.57;;;3.60;;
32094;SDS011;18608;53.688;10.748;2022-07-17T02:38:06;2.77;;;2.57;;
32094;SDS011;18608;53.688;10.748;2022-07-17T02:40:32;10.90;;;2.43;;
32094;SDS011;18608;53.688;10.748;2022-07-17T02:42:57;6.53;;;2.60;;
32094;SDS011;18608;53.688;10.748;2022-07-17T02:45:23;11.73;;;3.20;;
32094;SDS011;18608;53.688;10.748;2022-07-17T02:47:50;12.43;;;2.43;;
32094;SDS011;18608;53.688;10.748;2022-07-17T02:50:16;15.50;;;3.10;;
32094;SDS011;18608;53.688;10.748;2022-07-17T02:52:42;10.40;;;3.27;;
32094;SDS011;18608;53.688;10.748;2022-07-17T02:55:09;14.70;;;3.20;;
32094;SDS011;18608;53.688;10.748;2022-07-17T02:57:38;7.83;;;2.80;;
32094;SDS011;18608;53.688;10.748;2022-07-17T03:00:05;15.70;;;3.57;;
32094;SDS011;18608;53.688;10.748;2022-07-17T03:02:33;9.27;;;3.13;;
32094;SDS011;18608;53.688;10.748;2022-07-17T03:04:58;7.23;;;2.17;;
32094;SDS011;18608;53.688;10.748;2022-07-17T03:07:24;11.10;;;3.40;;
32094;SDS011;18608;53.688;10.748;2022-07-17T03:09:50;5.83;;;2.63;;
32094;SDS011;18608;53.688;10.748;2022-07-17T03:12:15;9.37;;;2.47;;
32094;SDS011;18608;53.688;10.748;2022-07-17T03:14:41;11.43;;;3.07;;
32094;SDS011;18608;53.688;10.748;2022-07-17T03:17:07;7.73;;;3.33;;
32094;SDS011;18608;53.688;10.748;2022-07-17T03:19:32;8.10;;;2.60;;
32094;SDS011;18608;53.688;10.748;2022-07-17T03:21:58;6.00;;;2.50;;
32094;SDS011;18608;53.688;10.748;2022-07-17T03:24:24;20.77;;;3.37;;
32094;SDS011;18608;53.688;10.748;2022-07-17T03:26:49;7.03;;;2.80;;
32094;SDS011;18608;53.688;10.748;2022-07-17T03:29:15;11.73;;;4.70;;
32094;SDS011;18608;53.688;10.748;2022-07-17T03:31:44;5.30;;;2.87;;
32094;SDS011;18608;53.688;10.748;2022-07-17T03:34:11;11.50;;;4.00;;
32094;SDS011;18608;53.688;10.748;2022-07-17T03:36:36;4.53;;;3.00;;
32094;SDS011;18608;53.688;10.748;2022-07-17T03:39:02;14.17;;;3.03;;
32094;SDS011;18608;53.688;10.748;2022-07-17T03:41:28;7.13;;;2.80;;
32094;SDS011;18608;53.688;10.748;2022-07-17T03:43:53;13.83;;;3.23;;
32094;SDS011;18608;53.688;10.748;2022-07-17T03:46:19;8.80;;;3.23;;
32094;SDS011;18608;53.688;10.748;2022-07-17T03:48:45;7.73;;;4.00;;
32094;SDS011;18608;53.688;10.748;2022-07-17T03:51:11;9.23;;;3.17;;
32094;SDS011;18608;53.688;10.748;2022-07-17T03:53:36;9.00;;;2.90;;
32094;SDS011;18608;53.688;10.748;2022-07-17T03:56:02;9.00;;;2.87;;
32094;SDS011;18608;53.688;10.748;2022-07-17T03:58:28;19.73;;;3.30;;
32094;SDS011;18608;53.688;10.748;2022-07-17T04:00:53;6.17;;;3.23;;
32094;SDS011;18608;53.688;10.748;2022-07-17T04:03:19;2.83;;;2.60;;
32094;SDS011;18608;53.688;10.748;2022-07-17T04:05:45;9.13;;;2.83;;
32094;SDS011;18608;53.688;10.748;2022-07-17T04:08:11;14.87;;;4.37;;
32094;SDS011;18608;53.688;10.748;2022-07-17T04:10:38;9.67;;;2.50;;
32094;SDS011;18608;53.688;10.748;2022-07-17T04:13:03;7.10;;;2.80;;
32094;SDS011;18608;53.688;10.748;2022-07-17T04:15:29;6.40;;;3.70;;
32094;SDS011;18608;53.688;10.748;2022-07-17T04:18:13;3.23;;;2.13;;
32094;SDS011;18608;53.688;10.748;2022-07-17T04:20:39;11.47;;;3.60;;
32094;SDS011;18608;53.688;10.748;2022-07-17T04:23:04;8.53;;;3.00;;
32094;SDS011;18608;53.688;10.748;2022-07-17T04:25:30;6.00;;;2.57;;
32094;SDS011;18608;53.688;10.748;2022-07-17T04:27:56;8.07;;;2.80;;
32094;SDS011;18608;53.688;10.748;2022-07-17T04:30:22;6.33;;;2.73;;
32094;SDS011;18608;53.688;10.748;2022-07-17T04:32:48;14.40;;;5.07;;
32094;SDS011;18608;53.688;10.748;2022-07-17T04:35:14;7.97;;;3.00;;
32094;SDS011;18608;53.688;10.748;2022-07-17T04:37:39;5.57;;;3.13;;
32094;SDS011;18608;53.688;10.748;2022-07-17T04:40:06;6.47;;;3.50;;
32094;SDS011;18608;53.688;10.748;2022-07-17T04:42:32;6.47;;;3.10;;
32094;SDS011;18608;53.688;10.748;2022-07-17T04:44:58;5.10;;;3.10;;
32094;SDS011;18608;53.688;10.748;2022-07-17T04:47:24;13.60;;;3.70;;
32094;SDS011;18608;53.688;10.748;2022-07-17T04:49:49;5.20;;;2.83;;
32094;SDS011;18608;53.688;10.748;2022-07-17T04:52:15;8.50;;;3.03;;
32094;SDS011;18608;53.688;10.748;2022-07-17T04:54:40;3.97;;;3.00;;
32094;SDS011;18608;53.688;10.748;2022-07-17T04:57:06;2.00;;;1.90;;
32094;SDS011;18608;53.688;10.748;2022-07-17T04:59:31;3.23;;;2.63;;
32094;SDS011;18608;53.688;10.748;2022-07-17T05:01:57;10.70;;;3.43;;
32094;SDS011;18608;53.688;10.748;2022-07-17T05:04:23;8.93;;;3.53;;
32094;SDS011;18608;53.688;10.748;2022-07-17T05:06:49;10.47;;;4.23;;
32094;SDS011;18608;53.688;10.748;2022-07-17T05:09:15;4.20;;;2.80;;
32094;SDS011;18608;53.688;10.748;2022-07-17T05:11:41;9.50;;;2.90;;
32094;SDS011;18608;53.688;10.748;2022-07-17T05:14:07;6.30;;;3.20;;
32094;SDS011;18608;53.688;10.748;2022-07-17T05:16:33;5.90;;;2.73;;
32094;SDS011;18608;53.688;10.748;2022-07-17T05:18:59;5.90;;;3.30;;
32094;SDS011;18608;53.688;10.748;2022-07-17T05:21:26;8.30;;;3.37;;
32094;SDS011;18608;53.688;10.748;2022-07-17T05:23:52;9.33;;;3.63;;
32094;SDS011;18608;53.688;10.748;2022-07-17T05:26:18;11.43;;;3.37;;
32094;SDS011;18608;53.688;10.748;2022-07-17T05:28:44;10.07;;;2.50;;
32094;SDS011;18608;53.688;10.748;2022-07-17T05:31:10;4.97;;;2.77;;
32094;SDS011;18608;53.688;10.748;2022-07-17T05:33:36;8.43;;;3.30;;
32094;SDS011;18608;53.688;10.748;2022-07-17T05:36:02;4.90;;;2.43;;
32094;SDS011;18608;53.688;10.748;2022-07-17T05:38:28;13.80;;;3.37;;
32094;SDS011;18608;53.688;10.748;2022-07-17T05:40:54;3.73;;;3.03;;
32094;SDS011;18608;53.688;10.748;2022-07-17T05:43:20;10.80;;;2.80;;
32094;SDS011;18608;53.688;10.748;2022-07-17T05:45:46;14.87;;;3.10;;
32094;SDS011;18608;53.688;10.748;2022-07-17T05:48:12;3.83;;;2.73;;
32094;SDS011;18608;53.688;10.748;2022-07-17T05:50:37;9.83;;;2.60;;
32094;SDS011;18608;53.688;10.748;2022-07-17T05:53:03;11.93;;;2.70;;
32094;SDS011;18608;53.688;10.748;2022-07-17T05:55:29;7.90;;;3.03;;
32094;SDS011;18608;53.688;10.748;2022-07-17T05:57:55;2.50;;;2.23;;
32094;SDS011;18608;53.688;10.748;2022-07-17T06:00:21;10.97;;;3.20;;
32094;SDS011;18608;53.688;10.748;2022-07-17T06:02:47;16.53;;;3.17;;
32094;SDS011;18608;53.688;10.748;2022-07-17T06:05:13;9.40;;;3.30;;
32094;SDS011;18608;53.688;10.748;2022-07-17T06:07:39;9.93;;;3.20;;
32094;SDS011;18608;53.688;10.748;2022-07-17T06:10:06;13.10;;;2.70;;
32094;SDS011;18608;53.688;10.748;2022-07-17T06:12:32;9.20;;;2.60;;
32094;SDS011;18608;53.688;10.748;2022-07-17T06:14:58;11.83;;;4.43;;
32094;SDS011;18608;53.688;10.748;2022-07-17T06:17:24;5.13;;;2.77;;
32094;SDS011;18608;53.688;10.748;2022-07-17T06:19:50;8.27;;;3.37;;
32094;SDS011;18608;53.688;10.748;2022-07-17T06:22:17;7.77;;;3.73;;
32094;SDS011;18608;53.688;10.748;2022-07-17T06:24:44;7.40;;;3.70;;
32094;SDS011;18608;53.688;10.748;2022-07-17T06:27:10;6.37;;;2.87;;
32094;SDS011;18608;53.688;10.748;2022-07-17T06:29:36;7.63;;;3.13;;
32094;SDS011;18608;53.688;10.748;2022-07-17T06:32:02;3.83;;;2.50;;
32094;SDS011;18608;53.688;10.748;2022-07-17T06:34:28;9.50;;;3.07;;
32094;SDS011;18608;53.688;10.748;2022-07-17T06:36:54;10.43;;;2.80;;
32094;SDS011;18608;53.688;10.748;2022-07-17T06:39:20;12.03;;;2.93;;
32094;SDS011;18608;53.688;10.748;2022-07-17T06:41:46;3.40;;;2.50;;
32094;SDS011;18608;53.688;10.748;2022-07-17T06:44:12;7.47;;;2.83;;
32094;SDS011;18608;53.688;10.748;2022-07-17T06:46:38;7.03;;;2.60;;
32094;SDS011;18608;53.688;10.748;2022-07-17T06:49:04;7.93;;;2.67;;
32094;SDS011;18608;53.688;10.748;2022-07-17T06:51:31;9.03;;;3.00;;
32094;SDS011;18608;53.688;10.748;2022-07-17T06:53:57;11.23;;;2.70;;
32094;SDS011;18608;53.688;10.748;2022-07-17T06:56:22;2.60;;;2.33;;
32094;SDS011;18608;53.688;10.748;2022-07-17T06:58:48;6.63;;;2.10;;
32094;SDS011;18608;53.688;10.748;2022-07-17T07:01:14;7.50;;;2.47;;
32094;SDS011;18608;53.688;10.748;2022-07-17T07:03:40;4.10;;;2.57;;
32094;SDS011;18608;53.688;10.748;2022-07-17T07:06:06;2.63;;;2.17;;
32094;SDS011;18608;53.688;10.748;2022-07-17T07:08:33;10.07;;;2.77;;
32094;SDS011;18608;53.688;10.748;2022-07-17T07:11:00;2.17;;;2.00;;
32094;SDS011;18608;53.688;10.748;2022-07-17T07:13:26;2.90;;;1.73;;
32094;SDS011;18608;53.688;10.748;2022-07-17T07:15:52;7.40;;;2.10;;
32094;SDS011;18608;53.688;10.748;2022-07-17T07:18:18;7.00;;;2.00;;
32094;SDS011;18608;53.688;10.748;2022-07-17T07:20:43;4.63;;;2.80;;
32094;SDS011;18608;53.688;10.748;2022-07-17T07:23:09;4.57;;;1.73;;
32094;SDS011;18608;53.688;10.748;2022-07-17T07:25:35;5.40;;;2.00;;
32094;SDS011;18608;53.688;10.748;2022-07-17T07:28:02;6.40;;;1.73;;
32094;SDS011;18608;53.688;10.748;2022-07-17T07:30:28;3.00;;;2.17;;
32094;SDS011;18608;53.688;10.748;2022-07-17T07:32:54;5.90;;;1.77;;
32094;SDS011;18608;53.688;10.748;2022-07-17T07:35:20;6.47;;;2.10;;
32094;SDS011;18608;53.688;10.748;2022-07-17T07:37:46;7.10;;;2.60;;
32094;SDS011;18608;53.688;10.748;2022-07-17T07:40:12;4.37;;;1.83;;
32094;SDS011;18608;53.688;10.748;2022-07-17T07:42:38;3.40;;;1.63;;
32094;SDS011;18608;53.688;10.748;2022-07-17T07:45:04;10.53;;;2.40;;
32094;SDS011;18608;53.688;10.748;2022-07-17T07:47:30;6.37;;;2.70;;
32094;SDS011;18608;53.688;10.748;2022-07-17T07:49:56;7.20;;;2.03;;
32094;SDS011;18608;53.688;10.748;2022-07-17T07:52:22;3.10;;;2.43;;
32094;SDS011;18608;53.688;10.748;2022-07-17T07:54:48;8.73;;;2.67;;
32094;SDS011;18608;53.688;10.748;2022-07-17T07:57:14;6.47;;;1.70;;
32094;SDS011;18608;53.688;10.748;2022-07-17T07:59:40;5.97;;;2.17;;
32094;SDS011;18608;53.688;10.748;2022-07-17T08:02:06;8.63;;;1.87;;
32094;SDS011;18608;53.688;10.748;2022-07-17T08:04:32;4.07;;;2.17;;
32094;SDS011;18608;53.688;10.748;2022-07-17T08:06:58;14.00;;;2.70;;
32094;SDS011;18608;53.688;10.748;2022-07-17T08:09:24;3.00;;;2.03;;
32094;SDS011;18608;53.688;10.748;2022-07-17T08:11:50;7.67;;;2.47;;
32094;SDS011;18608;53.688;10.748;2022-07-17T08:14:16;7.60;;;2.10;;
32094;SDS011;18608;53.688;10.748;2022-07-17T08:16:43;3.90;;;2.00;;
32094;SDS011;18608;53.688;10.748;2022-07-17T08:19:09;4.00;;;1.80;;
32094;SDS011;18608;53.688;10.748;2022-07-17T08:21:35;4.40;;;1.80;;
32094;SDS011;18608;53.688;10.748;2022-07-17T08:24:01;4.20;;;2.13;;
32094;SDS011;18608;53.688;10.748;2022-07-17T08:26:27;2.87;;;1.50;;
32094;SDS011;18608;53.688;10.748;2022-07-17T08:28:53;2.40;;;1.60;;
32094;SDS011;18608;53.688;10.748;2022-07-17T08:31:18;9.30;;;2.67;;
32094;SDS011;18608;53.688;10.748;2022-07-17T08:33:44;7.10;;;2.53;;
32094;SDS011;18608;53.688;10.748;2022-07-17T08:36:10;3.23;;;1.57;;
32094;SDS011;18608;53.688;10.748;2022-07-17T08:38:36;5.80;;;1.87;;
32094;SDS011;18608;53.688;10.748;2022-07-17T08:41:02;8.90;;;1.90;;
32094;SDS011;18608;53.688;10.748;2022-07-17T08:43:29;2.03;;;1.60;;
32094;SDS011;18608;53.688;10.748;2022-07-17T08:45:55;6.17;;;2.10;;
32094;SDS011;18608;53.688;10.748;2022-07-17T08:48:23;11.70;;;2.10;;
32094;SDS011;18608;53.688;10.748;2022-07-17T08:50:52;8.17;;;3.00;;
32094;SDS011;18608;53.688;10.748;2022-07-17T08:53:20;4.93;;;1.90;;
32094;SDS011;18608;53.688;10.748;2022-07-17T08:55:46;2.03;;;1.63;;
32094;SDS011;18608;53.688;10.748;2022-07-17T08:58:16;7.23;;;2.90;;
32094;SDS011;18608;53.688;10.748;2022-07-17T09:00:42;9.87;;;1.80;;
32094;SDS011;18608;53.688;10.748;2022-07-17T09:03:09;2.90;;;1.70;;
32094;SDS011;18608;53.688;10.748;2022-07-17T09:05:37;4.30;;;1.47;;
32094;SDS011;18608;53.688;10.748;2022-07-17T09:08:06;3.50;;;1.50;;
32094;SDS011;18608;53.688;10.748;2022-07-17T09:13:23;2.60;;;1.80;;
32094;SDS011;18608;53.688;10.748;2022-07-17T09:15:49;11.13;;;1.87;;
32094;SDS011;18608;53.688;10.748;2022-07-17T09:18:20;2.27;;;1.83;;
32094;SDS011;18608;53.688;10.748;2022-07-17T09:23:12;4.33;;;1.77;;
32094;SDS011;18608;53.688;10.748;2022-07-17T09:25:40;2.50;;;1.27;;
32094;SDS011;18608;53.688;10.748;2022-07-17T09:28:11;3.87;;;1.80;;
32094;SDS011;18608;53.688;10.748;2022-07-17T09:30:43;4.73;;;1.63;;
32094;SDS011;18608;53.688;10.748;2022-07-17T09:33:17;7.03;;;2.23;;
32094;SDS011;18608;53.688;10.748;2022-07-17T09:35:49;7.73;;;1.60;;
32094;SDS011;18608;53.688;10.748;2022-07-17T09:38:31;2.63;;;1.70;;
32094;SDS011;18608;53.688;10.748;2022-07-17T09:41:11;6.00;;;1.60;;
32094;SDS011;18608;53.688;10.748;2022-07-17T09:43:43;6.60;;;1.90;;
32094;SDS011;18608;53.688;10.748;2022-07-17T09:46:14;4.00;;;1.43;;
32094;SDS011;18608;53.688;10.748;2022-07-17T09:48:46;5.10;;;2.07;;
32094;SDS011;18608;53.688;10.748;2022-07-17T09:51:19;3.07;;;1.50;;
32094;SDS011;18608;53.688;10.748;2022-07-17T09:53:50;2.10;;;1.27;;
32094;SDS011;18608;53.688;10.748;2022-07-17T09:56:21;5.77;;;2.10;;
32094;SDS011;18608;53.688;10.748;2022-07-17T09:58:48;2.93;;;1.70;;
32094;SDS011;18608;53.688;10.748;2022-07-17T10:01:35;4.77;;;1.80;;
32094;SDS011;18608;53.688;10.748;2022-07-17T10:04:02;3.83;;;1.40;;
32094;SDS011;18608;53.688;10.748;2022-07-17T10:06:28;3.77;;;1.67;;
32094;SDS011;18608;53.688;10.748;2022-07-17T10:08:54;3.50;;;1.50;;
32094;SDS011;18608;53.688;10.748;2022-07-17T10:11:21;3.70;;;1.77;;
32094;SDS011;18608;53.688;10.748;2022-07-17T10:13:49;4.67;;;1.10;;
32094;SDS011;18608;53.688;10.748;2022-07-17T10:16:22;5.60;;;2.07;;
32094;SDS011;18608;53.688;10.748;2022-07-17T10:18:52;9.77;;;1.73;;
32094;SDS011;18608;53.688;10.748;2022-07-17T10:21:20;4.27;;;1.60;;
32094;SDS011;18608;53.688;10.748;2022-07-17T10:29:02;5.50;;;1.77;;
32094;SDS011;18608;53.688;10.748;2022-07-17T10:31:29;4.67;;;1.43;;
32094;SDS011;18608;53.688;10.748;2022-07-17T10:34:04;9.40;;;2.30;;
32094;SDS011;18608;53.688;10.748;2022-07-17T10:36:34;3.10;;;1.37;;
32094;SDS011;18608;53.688;10.748;2022-07-17T10:39:12;3.17;;;1.50;;
32094;SDS011;18608;53.688;10.748;2022-07-17T10:41:40;2.70;;;1.50;;
32094;SDS011;18608;53.688;10.748;2022-07-17T10:44:06;4.00;;;1.10;;
32094;SDS011;18608;53.688;10.748;2022-07-17T10:46:32;3.90;;;1.70;;
32094;SDS011;18608;53.688;10.748;2022-07-17T10:48:58;4.20;;;1.37;;
32094;SDS011;18608;53.688;10.748;2022-07-17T10:51:28;2.67;;;1.90;;
32094;SDS011;18608;53.688;10.748;2022-07-17T10:53:58;6.00;;;1.53;;
32094;SDS011;18608;53.688;10.748;2022-07-17T10:56:25;2.53;;;1.83;;
32094;SDS011;18608;53.688;10.748;2022-07-17T10:58:52;1.57;;;1.10;;
32094;SDS011;18608;53.688;10.748;2022-07-17T11:01:18;6.70;;;2.30;;
32094;SDS011;18608;53.688;10.748;2022-07-17T11:03:50;3.43;;;1.40;;
32094;SDS011;18608;53.688;10.748;2022-07-17T11:08:45;7.27;;;1.93;;
32094;SDS011;18608;53.688;10.748;2022-07-17T11:11:15;3.23;;;1.63;;
32094;SDS011;18608;53.688;10.748;2022-07-17T11:13:44;7.43;;;1.97;;
32094;SDS011;18608;53.688;10.748;2022-07-17T11:16:10;3.73;;;1.47;;
32094;SDS011;18608;53.688;10.748;2022-07-17T11:18:36;4.33;;;1.30;;
32094;SDS011;18608;53.688;10.748;2022-07-17T11:21:03;5.90;;;1.40;;
32094;SDS011;18608;53.688;10.748;2022-07-17T11:23:31;2.20;;;1.40;;
32094;SDS011;18608;53.688;10.748;2022-07-17T11:26:00;4.60;;;1.63;;
32094;SDS011;18608;53.688;10.748;2022-07-17T11:28:27;7.93;;;1.73;;
32094;SDS011;18608;53.688;10.748;2022-07-17T11:30:57;6.20;;;1.40;;
32094;SDS011;18608;53.688;10.748;2022-07-17T11:33:24;7.33;;;1.00;;
32094;SDS011;18608;53.688;10.748;2022-07-17T11:35:50;7.17;;;1.43;;
32094;SDS011;18608;53.688;10.748;2022-07-17T11:38:16;3.83;;;1.43;;
32094;SDS011;18608;53.688;10.748;2022-07-17T11:40:52;3.30;;;1.30;;
32094;SDS011;18608;53.688;10.748;2022-07-17T11:43:18;8.23;;;1.90;;
32094;SDS011;18608;53.688;10.748;2022-07-17T11:45:45;1.57;;;1.20;;
32094;SDS011;18608;53.688;10.748;2022-07-17T11:48:11;6.27;;;1.63;;
32094;SDS011;18608;53.688;10.748;2022-07-17T11:50:37;4.90;;;1.60;;
32094;SDS011;18608;53.688;10.748;2022-07-17T11:53:04;5.07;;;1.67;;
32094;SDS011;18608;53.688;10.748;2022-07-17T11:55:37;3.20;;;1.90;;
32094;SDS011;18608;53.688;10.748;2022-07-17T11:58:04;2.63;;;1.33;;
32094;SDS011;18608;53.688;10.748;2022-07-17T12:00:30;3.07;;;1.50;;
32094;SDS011;18608;53.688;10.748;2022-07-17T12:03:00;7.10;;;1.53;;
32094;SDS011;18608;53.688;10.748;2022-07-17T12:05:28;8.13;;;1.40;;
32094;SDS011;18608;53.688;10.748;2022-07-17T12:07:55;3.27;;;1.57;;
32094;SDS011;18608;53.688;10.748;2022-07-17T12:10:22;6.50;;;2.07;;
32094;SDS011;18608;53.688;10.748;2022-07-17T12:15:37;7.00;;;1.40;;
32094;SDS011;18608;53.688;10.748;2022-07-17T12:18:05;1.80;;;1.50;;
32094;SDS011;18608;53.688;10.748;2022-07-17T12:20:44;2.07;;;1.20;;
32094;SDS011;18608;53.688;10.748;2022-07-17T12:23:34;17.27;;;2.67;;
32094;SDS011;18608;53.688;10.748;2022-07-17T12:28:29;2.63;;;1.33;;
32094;SDS011;18608;53.688;10.748;2022-07-17T12:30:55;9.70;;;1.50;;
32094;SDS011;18608;53.688;10.748;2022-07-17T12:33:21;4.63;;;1.80;;
32094;SDS011;18608;53.688;10.748;2022-07-17T12:35:47;1.63;;;1.17;;
32094;SDS011;18608;53.688;10.748;2022-07-17T12:38:13;3.67;;;1.50;;
32094;SDS011;18608;53.688;10.748;2022-07-17T12:40:39;3.90;;;1.30;;
32094;SDS011;18608;53.688;10.748;2022-07-17T12:43:05;7.33;;;1.30;;
32094;SDS011;18608;53.688;10.748;2022-07-17T12:45:31;6.07;;;1.47;;
32094;SDS011;18608;53.688;10.748;2022-07-17T12:47:57;6.07;;;1.50;;
32094;SDS011;18608;53.688;10.748;2022-07-17T12:50:23;3.90;;;1.70;;
32094;SDS011;18608;53.688;10.748;2022-07-17T12:52:49;4.20;;;1.27;;
32094;SDS011;18608;53.688;10.748;2022-07-17T12:55:15;3.87;;;1.60;;
32094;SDS011;18608;53.688;10.748;2022-07-17T12:57:42;2.43;;;1.30;;
32094;SDS011;18608;53.688;10.748;2022-07-17T13:00:08;4.70;;;1.30;;
32094;SDS011;18608;53.688;10.748;2022-07-17T13:02:35;1.37;;;1.27;;
32094;SDS011;18608;53.688;10.748;2022-07-17T13:05:01;2.13;;;1.20;;
32094;SDS011;18608;53.688;10.748;2022-07-17T13:07:27;2.60;;;1.00;;
32094;SDS011;18608;53.688;10.748;2022-07-17T13:09:53;4.90;;;1.33;;
32094;SDS011;18608;53.688;10.748;2022-07-17T13:12:20;2.20;;;1.43;;
32094;SDS011;18608;53.688;10.748;2022-07-17T13:14:46;1.93;;;1.33;;
32094;SDS011;18608;53.688;10.748;2022-07-17T13:17:13;4.67;;;1.20;;
32094;SDS011;18608;53.688;10.748;2022-07-17T13:19:38;2.80;;;1.63;;
32094;SDS011;18608;53.688;10.748;2022-07-17T13:22:04;5.00;;;1.37;;
32094;SDS011;18608;53.688;10.748;2022-07-17T13:24:30;4.50;;;1.47;;
32094;SDS011;18608;53.688;10.748;2022-07-17T13:26:57;4.03;;;1.50;;
32094;SDS011;18608;53.688;10.748;2022-07-17T13:29:23;10.50;;;1.10;;
32094;SDS011;18608;53.688;10.748;2022-07-17T13:31:51;1.43;;;1.20;;
32094;SDS011;18608;53.688;10.748;2022-07-17T13:34:20;5.13;;;1.43;;
32094;SDS011;18608;53.688;10.748;2022-07-17T13:36:46;4.03;;;1.23;;
32094;SDS011;18608;53.688;10.748;2022-07-17T13:39:12;4.60;;;1.50;;
32094;SDS011;18608;53.688;10.748;2022-07-17T13:41:38;7.33;;;1.40;;
32094;SDS011;18608;53.688;10.748;2022-07-17T13:44:04;1.30;;;1.20;;
32094;SDS011;18608;53.688;10.748;2022-07-17T13:46:30;3.37;;;1.10;;
32094;SDS011;18608;53.688;10.748;2022-07-17T13:48:56;3.53;;;1.20;;
32094;SDS011;18608;53.688;10.748;2022-07-17T13:51:22;1.60;;;1.33;;
32094;SDS011;18608;53.688;10.748;2022-07-17T13:53:48;1.43;;;1.33;;
32094;SDS011;18608;53.688;10.748;2022-07-17T13:56:14;3.10;;;1.27;;
32094;SDS011;18608;53.688;10.748;2022-07-17T13:58:40;3.83;;;2.10;;
32094;SDS011;18608;53.688;10.748;2022-07-17T14:01:06;4.00;;;1.67;;
32094;SDS011;18608;53.688;10.748;2022-07-17T14:03:32;8.50;;;1.97;;
32094;SDS011;18608;53.688;10.748;2022-07-17T14:05:59;1.30;;;1.20;;
32094;SDS011;18608;53.688;10.748;2022-07-17T14:08:25;6.27;;;1.27;;
32094;SDS011;18608;53.688;10.748;2022-07-17T14:10:51;5.03;;;1.07;;
32094;SDS011;18608;53.688;10.748;2022-07-17T14:13:17;1.70;;;1.20;;
32094;SDS011;18608;53.688;10.748;2022-07-17T14:15:43;2.10;;;1.10;;
32094;SDS011;18608;53.688;10.748;2022-07-17T14:18:09;4.30;;;1.43;;
32094;SDS011;18608;53.688;10.748;2022-07-17T14:20:34;5.20;;;1.80;;
32094;SDS011;18608;53.688;10.748;2022-07-17T14:23:00;4.10;;;1.10;;
32094;SDS011;18608;53.688;10.748;2022-07-17T14:25:26;1.53;;;0.97;;
32094;SDS011;18608;53.688;10.748;2022-07-17T14:27:52;4.00;;;1.53;;
32094;SDS011;18608;53.688;10.748;2022-07-17T14:30:18;3.33;;;1.60;;
32094;SDS011;18608;53.688;10.748;2022-07-17T14:32:44;9.57;;;2.47;;
32094;SDS011;18608;53.688;10.748;2022-07-17T14:35:10;3.90;;;2.00;;
32094;SDS011;18608;53.688;10.748;2022-07-17T14:37:36;9.60;;;2.53;;
32094;SDS011;18608;53.688;10.748;2022-07-17T14:40:02;3.83;;;2.00;;
32094;SDS011;18608;53.688;10.748;2022-07-17T14:42:29;3.97;;;2.23;;
32094;SDS011;18608;53.688;10.748;2022-07-17T14:44:58;2.00;;;1.67;;
32094;SDS011;18608;53.688;10.748;2022-07-17T14:47:24;4.37;;;1.90;;
32094;SDS011;18608;53.688;10.748;2022-07-17T14:49:50;1.40;;;1.23;;
32094;SDS011;18608;53.688;10.748;2022-07-17T14:52:16;7.30;;;2.20;;